createdAt,value
2022-12-08T00:01:17.769Z,13.31
2022-12-08T00:03:45.171Z,13.20
2022-12-08T00:06:52.968Z,13.26
2022-12-08T00:09:38.760Z,13.15
2022-12-08T00:12:08.767Z,13.23
2022-12-08T00:14:44.048Z,13.29
2022-12-08T00:17:12.908Z,13.27
2022-12-08T00:19:40.687Z,13.33
2022-12-08T00:22:09.122Z,13.37
2022-12-08T00:24:39.755Z,13.41
2022-12-08T00:27:09.150Z,13.44
2022-12-08T00:29:35.877Z,13.50
2022-12-08T00:32:02.703Z,13.54
2022-12-08T00:34:30.922Z,13.57
2022-12-08T00:36:57.618Z,13.54
2022-12-08T00:39:24.629Z,13.57
2022-12-08T00:42:09.590Z,13.44
2022-12-08T00:44:36.199Z,13.45
2022-12-08T00:47:02.736Z,13.41
2022-12-08T00:49:29.371Z,13.45
2022-12-08T00:51:56.330Z,13.42
2022-12-08T00:54:24.259Z,13.45
2022-12-08T00:56:51.391Z,13.43
2022-12-08T00:59:18.105Z,13.43
2022-12-08T01:01:46.243Z,13.44
2022-12-08T01:04:15.662Z,13.47
2022-12-08T01:06:42.925Z,13.41
2022-12-08T01:09:11.409Z,13.43
2022-12-08T01:11:38.195Z,13.41
2022-12-08T01:14:04.784Z,13.41
2022-12-08T01:16:34.660Z,13.42
2022-12-08T01:19:01.811Z,13.40
2022-12-08T01:21:29.125Z,13.29
2022-12-08T01:23:56.310Z,13.35
2022-12-08T01:26:22.929Z,13.37
2022-12-08T01:28:49.604Z,13.32
2022-12-08T01:31:19.267Z,13.34
2022-12-08T01:33:46.800Z,13.35
2022-12-08T01:36:28.206Z,13.16
2022-12-08T01:38:58.272Z,13.20
2022-12-08T01:41:28.691Z,13.19
2022-12-08T01:44:08.843Z,13.14
2022-12-08T01:46:37.587Z,13.23
2022-12-08T01:49:22.545Z,13.18
2022-12-08T01:52:00.220Z,13.09
2022-12-08T01:54:31.773Z,13.15
2022-12-08T01:57:08.634Z,12.96
2022-12-08T01:59:41.362Z,12.94
2022-12-08T02:02:10.443Z,12.93
2022-12-08T02:04:37.642Z,12.93
2022-12-08T02:07:08.365Z,12.88
2022-12-08T02:09:36.612Z,12.91
2022-12-08T02:12:03.504Z,12.93
2022-12-08T02:14:30.267Z,12.97
2022-12-08T02:17:15.768Z,13.01
2022-12-08T02:19:45.263Z,13.02
2022-12-08T02:22:18.469Z,12.98
2022-12-08T02:25:31.318Z,13.06
2022-12-08T02:28:00.653Z,12.88
2022-12-08T02:30:42.098Z,12.89
2022-12-08T02:33:26.919Z,12.87
2022-12-08T02:36:16.249Z,12.93
2022-12-08T02:39:12.679Z,12.91
2022-12-08T02:42:23.538Z,12.98
2022-12-08T02:44:58.885Z,13.03
2022-12-08T02:47:28.298Z,12.99
2022-12-08T02:49:56.234Z,13.04
2022-12-08T02:52:22.748Z,13.09
2022-12-08T02:55:13.283Z,13.06
2022-12-08T02:58:01.458Z,13.02
2022-12-08T03:00:33.695Z,12.95
2022-12-08T03:03:19.591Z,12.95
2022-12-08T03:06:44.608Z,12.84
2022-12-08T03:09:29.590Z,12.85
2022-12-08T03:12:04.224Z,12.90
2022-12-08T03:14:33.717Z,12.93
2022-12-08T03:17:01.019Z,12.94
2022-12-08T03:19:33.126Z,12.92
2022-12-08T03:22:03.364Z,12.93
2022-12-08T03:24:34.752Z,12.83
2022-12-08T03:27:06.984Z,12.80
2022-12-08T03:29:34.359Z,12.89
2022-12-08T03:32:38.580Z,12.82
2022-12-08T03:35:16.414Z,12.91
2022-12-08T03:37:43.674Z,12.95
2022-12-08T03:40:13.837Z,12.99
2022-12-08T03:42:40.514Z,12.97
2022-12-08T03:45:07.718Z,12.83
2022-12-08T03:47:34.340Z,12.85
2022-12-08T03:50:01.104Z,12.86
2022-12-08T03:52:27.895Z,12.85
2022-12-08T03:54:54.483Z,12.78
2022-12-08T03:57:21.707Z,12.77
2022-12-08T03:59:48.341Z,12.70
2022-12-08T04:02:14.986Z,12.71
2022-12-08T04:04:41.586Z,12.76
2022-12-08T04:07:08.324Z,12.76
2022-12-08T04:09:34.885Z,12.63
2022-12-08T04:12:01.503Z,12.69
2022-12-08T04:14:28.074Z,12.73
2022-12-08T04:16:54.686Z,12.73
2022-12-08T04:19:21.318Z,12.75
2022-12-08T04:21:47.921Z,12.77
2022-12-08T04:24:14.524Z,12.69
2022-12-08T04:26:41.235Z,12.60
2022-12-08T04:29:07.816Z,12.65
2022-12-08T04:31:34.483Z,12.71
2022-12-08T04:34:01.165Z,12.71
2022-12-08T04:36:27.820Z,12.64
2022-12-08T04:38:54.408Z,12.55
2022-12-08T04:41:21.219Z,12.42
2022-12-08T04:43:47.789Z,12.41
2022-12-08T04:46:14.488Z,12.26
2022-12-08T04:48:41.873Z,12.37
2022-12-08T04:51:15.837Z,12.43
2022-12-08T04:53:46.485Z,12.45
2022-12-08T04:56:18.451Z,12.39
2022-12-08T04:58:45.922Z,12.30
2022-12-08T05:01:13.410Z,12.25
2022-12-08T05:03:40.099Z,12.26
2022-12-08T05:06:07.190Z,12.24
2022-12-08T05:08:33.955Z,12.32
2022-12-08T05:11:05.628Z,12.18
2022-12-08T05:13:32.518Z,12.09
2022-12-08T05:16:13.268Z,12.07
2022-12-08T05:18:41.593Z,12.15
2022-12-08T05:21:09.209Z,12.09
2022-12-08T05:23:36.411Z,12.11
2022-12-08T05:26:03.443Z,12.08
2022-12-08T05:28:41.488Z,12.05
2022-12-08T05:31:08.887Z,12.13
2022-12-08T05:33:35.540Z,12.15
2022-12-08T05:36:02.144Z,12.16
2022-12-08T05:38:29.516Z,12.19
2022-12-08T05:40:56.151Z,12.16
2022-12-08T05:43:22.709Z,12.04
2022-12-08T05:45:49.777Z,12.11
2022-12-08T05:48:16.751Z,12.03
2022-12-08T05:50:47.985Z,12.02
2022-12-08T05:53:15.994Z,11.97
2022-12-08T05:55:42.647Z,12.04
2022-12-08T05:58:16.753Z,12.05
2022-12-08T06:00:44.146Z,12.11
2022-12-08T06:03:12.518Z,12.14
2022-12-08T06:05:41.348Z,12.12
2022-12-08T06:08:08.558Z,12.15
2022-12-08T06:10:35.201Z,12.18
2022-12-08T06:13:01.774Z,12.19
2022-12-08T06:15:28.430Z,12.17
2022-12-08T06:17:55.019Z,12.22
2022-12-08T06:20:21.684Z,12.17
2022-12-08T06:22:48.280Z,12.18
2022-12-08T06:25:14.960Z,12.14
2022-12-08T06:27:41.527Z,12.04
2022-12-08T06:30:08.581Z,12.07
2022-12-08T06:32:36.280Z,12.07
2022-12-08T06:35:03.063Z,12.04
2022-12-08T06:37:29.663Z,12.14
2022-12-08T06:39:56.878Z,12.21
2022-12-08T06:42:42.542Z,12.26
2022-12-08T06:45:10.816Z,12.27
2022-12-08T06:47:37.447Z,12.21
2022-12-08T06:50:05.930Z,12.22
2022-12-08T06:52:32.807Z,12.20
2022-12-08T06:54:59.412Z,12.24
2022-12-08T06:57:26.237Z,12.20
2022-12-08T06:59:52.950Z,12.23
2022-12-08T07:02:19.712Z,12.25
2022-12-08T07:04:46.327Z,12.25
2022-12-08T07:07:12.935Z,12.24
2022-12-08T07:09:39.566Z,12.14
2022-12-08T07:12:06.411Z,12.21
2022-12-08T07:14:33.081Z,12.25
2022-12-08T07:17:00.317Z,12.23
2022-12-08T07:19:27.162Z,12.25
2022-12-08T07:21:53.777Z,12.24
2022-12-08T07:24:20.467Z,12.38
2022-12-08T07:26:47.079Z,12.40
2022-12-08T07:29:13.879Z,12.46
2022-12-08T07:31:40.477Z,12.45
2022-12-08T07:34:07.084Z,12.41
2022-12-08T07:36:33.760Z,12.44
2022-12-08T07:39:00.396Z,12.38
2022-12-08T07:41:27.114Z,12.40
2022-12-08T07:43:54.523Z,12.32
2022-12-08T07:46:23.506Z,12.32
2022-12-08T07:48:52.497Z,12.37
2022-12-08T07:51:19.282Z,12.26
2022-12-08T07:53:53.380Z,12.30
2022-12-08T07:56:21.987Z,12.39
2022-12-08T07:58:48.811Z,12.33
2022-12-08T08:01:28.102Z,12.24
2022-12-08T08:03:56.636Z,12.19
2022-12-08T08:06:24.168Z,12.26
2022-12-08T08:08:50.843Z,12.22
2022-12-08T08:11:21.255Z,12.29
2022-12-08T08:13:49.946Z,12.27
2022-12-08T08:16:17.152Z,12.16
2022-12-08T08:18:46.212Z,12.18
2022-12-08T08:23:59.374Z,12.29
2022-12-08T08:26:25.983Z,12.27
2022-12-08T08:28:52.692Z,12.26
2022-12-08T08:31:25.084Z,12.30
2022-12-08T08:33:51.971Z,12.30
2022-12-08T08:36:18.751Z,12.28
2022-12-08T08:38:45.400Z,12.32
2022-12-08T08:41:12.105Z,12.34
2022-12-08T08:43:39.061Z,12.38
2022-12-08T08:46:07.017Z,12.47
2022-12-08T08:48:33.999Z,12.53
2022-12-08T08:51:09.042Z,12.70
2022-12-08T08:53:36.150Z,12.78
2022-12-08T08:56:05.193Z,12.89
2022-12-08T08:58:31.953Z,12.88
2022-12-08T09:00:58.695Z,12.83
2022-12-08T09:03:25.454Z,12.89
2022-12-08T09:05:52.237Z,13.12
2022-12-08T09:08:19.097Z,13.25
2022-12-08T09:10:45.922Z,13.39
2022-12-08T09:13:12.627Z,13.52
2022-12-08T09:15:39.540Z,13.65
2022-12-08T09:18:09.480Z,13.71
2022-12-08T09:20:36.143Z,13.82
2022-12-08T09:23:02.812Z,13.87
2022-12-08T09:25:29.481Z,13.93
2022-12-08T09:27:56.207Z,13.91
2022-12-08T09:30:22.950Z,13.77
2022-12-08T09:32:49.616Z,13.79
2022-12-08T09:35:16.425Z,13.78
2022-12-08T09:37:43.088Z,13.92
2022-12-08T09:40:15.263Z,13.82
2022-12-08T09:42:51.436Z,13.89
2022-12-08T09:45:19.884Z,13.95
2022-12-08T09:48:04.457Z,13.96
2022-12-08T09:50:35.486Z,14.04
2022-12-08T09:53:19.954Z,13.96
2022-12-08T09:55:51.452Z,13.89
2022-12-08T09:58:38.940Z,14.02
2022-12-08T10:01:05.612Z,14.22
2022-12-08T10:03:32.249Z,14.43
2022-12-08T10:06:10.247Z,14.54
2022-12-08T10:08:47.890Z,14.73
2022-12-08T10:11:24.623Z,14.89
2022-12-08T10:13:51.262Z,14.92
2022-12-08T10:16:41.194Z,14.94
2022-12-08T10:19:28.898Z,14.92
2022-12-08T10:21:56.918Z,14.98
2022-12-08T10:24:48.953Z,14.96
2022-12-08T10:27:15.887Z,14.98
2022-12-08T10:29:42.449Z,14.98
2022-12-08T10:32:19.020Z,14.96
2022-12-08T10:35:00.857Z,14.95
2022-12-08T10:37:27.463Z,14.97
2022-12-08T10:40:22.279Z,14.98
2022-12-08T10:42:55.494Z,15.00
2022-12-08T10:45:24.953Z,15.00
2022-12-08T10:48:09.862Z,15.02
2022-12-08T10:50:42.697Z,15.01
2022-12-08T10:53:09.382Z,14.97
2022-12-08T10:55:44.356Z,15.02
2022-12-08T10:58:24.628Z,15.04
2022-12-08T11:00:57.019Z,15.05
2022-12-08T11:03:55.514Z,15.06
2022-12-08T11:06:31.347Z,15.04
2022-12-08T11:09:01.701Z,15.02
2022-12-08T11:11:54.064Z,14.93
2022-12-08T11:14:25.688Z,14.92
2022-12-08T11:16:56.000Z,14.86
2022-12-08T11:19:29.371Z,14.88
2022-12-08T11:21:57.098Z,14.91
2022-12-08T11:24:28.589Z,14.95
2022-12-08T11:27:02.585Z,14.90
2022-12-08T11:29:32.745Z,14.86
2022-12-08T11:32:05.681Z,14.83
2022-12-08T11:34:35.669Z,14.83
2022-12-08T11:37:06.399Z,14.85
2022-12-08T11:39:36.387Z,14.90
2022-12-08T11:42:07.891Z,14.95
2022-12-08T11:44:42.276Z,14.89
2022-12-08T11:47:14.910Z,14.80
2022-12-08T11:49:43.169Z,14.89
2022-12-08T11:52:29.865Z,14.88
2022-12-08T11:54:59.555Z,14.93
2022-12-08T11:57:28.645Z,14.97
2022-12-08T11:59:58.085Z,15.03
2022-12-08T12:02:29.074Z,15.09
2022-12-08T12:04:59.557Z,15.04
2022-12-08T12:08:04.649Z,15.14
2022-12-08T12:10:49.720Z,15.17
2022-12-08T12:13:50.138Z,15.21
2022-12-08T12:16:36.070Z,15.20
2022-12-08T12:19:10.789Z,15.18
2022-12-08T12:21:49.151Z,15.05
2022-12-08T12:24:26.741Z,15.04
2022-12-08T12:27:08.083Z,15.10
2022-12-08T12:29:38.480Z,15.13
2022-12-08T12:32:08.654Z,15.20
2022-12-08T12:34:43.468Z,15.26
2022-12-08T12:37:14.946Z,15.31
2022-12-08T12:39:59.844Z,15.32
2022-12-08T12:42:37.248Z,15.33
2022-12-08T12:45:21.831Z,15.32
2022-12-08T12:47:57.884Z,15.26
2022-12-08T12:50:33.756Z,15.22
2022-12-08T12:53:02.916Z,15.24
2022-12-08T12:55:54.323Z,15.26
2022-12-08T12:58:29.835Z,15.19
2022-12-08T13:01:08.516Z,15.11
2022-12-08T13:03:36.276Z,15.12
2022-12-08T13:06:03.764Z,15.09
2022-12-08T13:08:31.437Z,15.05
2022-12-08T13:11:09.036Z,14.98
2022-12-08T13:13:37.807Z,14.93
2022-12-08T13:16:18.957Z,14.94
2022-12-08T13:18:51.271Z,14.94
2022-12-08T13:21:23.632Z,14.91
2022-12-08T13:24:17.916Z,14.91
2022-12-08T13:27:09.270Z,14.81
2022-12-08T13:29:37.367Z,14.82
2022-12-08T13:32:09.837Z,14.79
2022-12-08T13:34:51.460Z,14.78
2022-12-08T13:37:26.879Z,14.70
2022-12-08T13:40:06.644Z,14.69
2022-12-08T13:42:42.982Z,14.57
2022-12-08T13:45:33.548Z,14.63
2022-12-08T13:48:52.306Z,14.67
2022-12-08T13:53:10.591Z,14.58
2022-12-08T13:57:30.384Z,14.57
2022-12-08T14:00:01.516Z,14.50
2022-12-08T14:02:42.045Z,14.50
2022-12-08T14:05:29.762Z,14.35
2022-12-08T14:07:59.772Z,14.38
2022-12-08T14:10:30.483Z,14.38
2022-12-08T14:13:01.356Z,14.44
2022-12-08T14:15:33.997Z,14.33
2022-12-08T14:18:03.744Z,14.35
2022-12-08T14:20:35.864Z,14.19
2022-12-08T14:23:09.371Z,14.25
2022-12-08T14:25:36.164Z,13.98
2022-12-08T14:28:05.023Z,14.09
2022-12-08T14:30:33.223Z,14.00
2022-12-08T14:33:02.092Z,14.20
2022-12-08T14:35:31.643Z,14.27
2022-12-08T14:38:01.461Z,14.37
2022-12-08T14:40:35.882Z,14.44
2022-12-08T14:43:12.518Z,14.48
2022-12-08T14:45:39.129Z,14.54
2022-12-08T14:48:36.503Z,14.56
2022-12-08T14:51:21.431Z,14.57
2022-12-08T14:53:58.897Z,14.57
2022-12-08T14:56:36.953Z,14.56
2022-12-08T14:59:37.937Z,14.45
2022-12-08T15:02:19.358Z,14.28
2022-12-08T15:04:48.548Z,14.31
2022-12-08T15:07:23.709Z,14.34
2022-12-08T15:10:19.892Z,14.36
2022-12-08T15:13:11.452Z,14.34
2022-12-08T15:15:55.948Z,14.35
2022-12-08T15:18:36.019Z,14.27
2022-12-08T15:21:05.972Z,14.22
2022-12-08T15:23:42.552Z,14.08
2022-12-08T15:26:11.695Z,14.16
2022-12-08T15:28:38.387Z,14.01
2022-12-08T15:31:05.174Z,14.04
2022-12-08T15:33:31.943Z,13.94
2022-12-08T15:35:58.834Z,14.02
2022-12-08T15:38:28.891Z,13.92
2022-12-08T15:40:57.560Z,13.94
2022-12-08T15:43:24.442Z,14.09
2022-12-08T15:45:59.025Z,14.12
2022-12-08T15:48:28.802Z,14.08
2022-12-08T15:50:56.386Z,14.14
2022-12-08T15:53:23.364Z,14.09
2022-12-08T15:56:18.971Z,13.98
2022-12-08T15:58:53.599Z,13.87
2022-12-08T16:01:21.941Z,13.75
2022-12-08T16:09:39.433Z,14.02
2022-12-08T16:13:26.771Z,14.05
2022-12-08T16:15:50.077Z,14.01
2022-12-08T16:18:17.353Z,14.11
2022-12-08T16:21:07.396Z,14.06
2022-12-08T16:23:46.381Z,13.96
2022-12-08T16:27:01.124Z,14.02
2022-12-08T16:29:07.464Z,13.90
2022-12-08T16:31:35.176Z,13.95
2022-12-08T16:34:01.959Z,13.99
2022-12-08T16:36:28.603Z,14.06
2022-12-08T16:38:55.202Z,14.04
2022-12-08T16:41:40.289Z,14.05
2022-12-08T16:44:06.975Z,13.80
2022-12-08T16:46:33.679Z,13.84
2022-12-08T16:49:00.622Z,13.96
2022-12-08T16:51:27.779Z,14.00
2022-12-08T16:53:58.357Z,14.05
2022-12-08T16:56:32.155Z,13.98
2022-12-08T16:58:59.827Z,14.05
2022-12-08T17:01:26.585Z,14.11
2022-12-08T17:04:22.611Z,14.16
2022-12-08T17:06:40.334Z,14.09
2022-12-08T17:09:07.311Z,14.13
2022-12-08T17:11:39.186Z,14.18
2022-12-08T17:14:09.534Z,14.23
2022-12-08T17:16:36.241Z,14.23
2022-12-08T17:19:03.027Z,14.25
2022-12-08T17:21:29.856Z,14.16
2022-12-08T17:23:56.717Z,14.08
2022-12-08T17:26:23.453Z,14.09
2022-12-08T17:29:05.544Z,14.16
2022-12-08T17:31:33.102Z,14.19
2022-12-08T17:34:05.326Z,14.23
2022-12-08T17:36:32.620Z,14.29
2022-12-08T17:39:01.210Z,14.35
2022-12-08T17:41:28.996Z,14.37
2022-12-08T17:43:55.836Z,14.41
2022-12-08T17:46:23.429Z,14.37
2022-12-08T17:48:50.381Z,14.41
2022-12-08T17:51:17.462Z,14.42
2022-12-08T17:53:44.597Z,14.44
2022-12-08T17:56:16.720Z,14.40
2022-12-08T17:58:43.473Z,14.29
2022-12-08T18:01:12.540Z,14.14
2022-12-08T18:03:39.736Z,14.24
2022-12-08T18:06:09.147Z,14.29
2022-12-08T18:08:36.619Z,14.35
2022-12-08T18:11:04.561Z,14.38
2022-12-08T18:13:31.990Z,14.28
2022-12-08T18:15:58.711Z,14.28
2022-12-08T18:18:25.409Z,14.32
2022-12-08T18:20:52.053Z,14.31
2022-12-08T18:23:18.839Z,14.34
2022-12-08T18:25:45.664Z,14.29
2022-12-08T18:28:12.259Z,14.26
2022-12-08T18:30:40.404Z,14.28
2022-12-08T18:33:07.644Z,14.30
2022-12-08T18:35:34.725Z,14.35
2022-12-08T18:38:02.423Z,14.37
2022-12-08T18:40:29.476Z,14.30
2022-12-08T18:42:56.170Z,14.32
2022-12-08T18:45:23.157Z,14.29
2022-12-08T18:47:51.307Z,14.30
2022-12-08T18:50:18.284Z,14.35
2022-12-08T18:52:46.038Z,14.29
2022-12-08T18:55:12.948Z,14.36
2022-12-08T18:57:42.978Z,14.37
2022-12-08T19:00:13.700Z,14.31
2022-12-08T19:02:40.911Z,14.35
2022-12-08T19:05:10.332Z,14.41
2022-12-08T19:07:37.080Z,14.43
2022-12-08T19:10:04.745Z,14.44
2022-12-08T19:12:31.600Z,14.42
2022-12-08T19:14:58.371Z,14.37
2022-12-08T19:17:25.901Z,14.40
2022-12-08T19:19:52.586Z,14.42
2022-12-08T19:22:19.222Z,14.34
2022-12-08T19:24:46.219Z,14.29
2022-12-08T19:27:12.830Z,14.24
2022-12-08T19:29:39.560Z,14.19
2022-12-08T19:32:06.240Z,14.25
2022-12-08T19:34:32.981Z,14.24
2022-12-08T19:36:59.642Z,14.23
2022-12-08T19:39:44.743Z,14.25
2022-12-08T19:42:40.178Z,14.20
2022-12-08T19:45:16.153Z,14.18
2022-12-08T19:47:43.847Z,14.05
2022-12-08T19:50:36.298Z,14.07
2022-12-08T19:53:11.004Z,14.10
2022-12-08T19:55:37.884Z,14.06
2022-12-08T19:58:06.392Z,14.11
2022-12-08T20:00:34.368Z,14.12
2022-12-08T20:03:02.445Z,14.12
2022-12-08T20:05:30.088Z,14.16
2022-12-08T20:07:57.175Z,14.14
2022-12-08T20:10:30.265Z,14.12
2022-12-08T20:13:17.182Z,14.10
2022-12-08T20:15:44.466Z,14.12
2022-12-08T20:18:12.800Z,14.19
2022-12-08T20:20:40.554Z,14.21
2022-12-08T20:23:08.098Z,14.26
2022-12-08T20:25:37.130Z,14.28
2022-12-08T20:28:03.989Z,14.28
2022-12-08T20:30:30.663Z,14.28
2022-12-08T20:32:57.330Z,14.24
2022-12-08T20:35:24.078Z,14.28
2022-12-08T20:37:50.751Z,14.30
2022-12-08T20:40:17.488Z,14.30
2022-12-08T20:42:44.215Z,14.31
2022-12-08T20:45:10.975Z,14.29
2022-12-08T20:47:38.328Z,14.24
2022-12-08T20:50:06.784Z,13.96
2022-12-08T20:52:33.778Z,14.03
2022-12-08T20:55:00.580Z,14.02
2022-12-08T20:57:27.326Z,13.98
2022-12-08T20:59:54.229Z,13.89
2022-12-08T21:02:21.098Z,13.84
2022-12-08T21:04:48.266Z,13.96
2022-12-08T21:07:15.522Z,13.88
2022-12-08T21:09:42.289Z,13.87
2022-12-08T21:12:09.040Z,14.00
2022-12-08T21:14:35.969Z,14.05
2022-12-08T21:17:02.820Z,14.03
2022-12-08T21:19:29.798Z,14.11
2022-12-08T21:21:56.630Z,14.16
2022-12-08T21:24:26.405Z,14.15
2022-12-08T21:26:55.707Z,14.01
2022-12-08T21:29:22.365Z,14.09
2022-12-08T21:31:49.280Z,14.15
2022-12-08T21:34:16.248Z,14.12
2022-12-08T21:36:43.050Z,14.13
2022-12-08T21:39:12.860Z,14.09
2022-12-08T21:41:58.328Z,14.08
2022-12-08T21:44:25.261Z,14.16
2022-12-08T21:46:52.161Z,14.15
2022-12-08T21:49:19.223Z,14.10
2022-12-08T21:51:45.931Z,14.07
2022-12-08T21:54:18.430Z,13.94
2022-12-08T21:56:47.214Z,14.02
2022-12-08T21:59:15.346Z,14.03
2022-12-08T22:01:45.281Z,13.98
2022-12-08T22:04:16.020Z,13.98
2022-12-08T22:06:42.832Z,13.98
2022-12-08T22:09:11.819Z,14.05
2022-12-08T22:11:38.601Z,14.02
2022-12-08T22:14:08.369Z,13.82
2022-12-08T22:16:39.500Z,13.87
2022-12-08T22:19:06.110Z,13.82
2022-12-08T22:21:32.873Z,13.73
2022-12-08T22:24:01.009Z,13.84
2022-12-08T22:26:27.797Z,13.89
2022-12-08T22:28:54.374Z,13.88
2022-12-08T22:31:21.165Z,13.98
2022-12-08T22:33:49.989Z,14.03
2022-12-08T22:36:22.451Z,14.01
2022-12-08T22:38:50.014Z,14.09
2022-12-08T22:41:18.177Z,14.16
2022-12-08T22:43:45.938Z,14.08
2022-12-08T22:46:22.325Z,14.16
2022-12-08T22:48:49.597Z,14.15
2022-12-08T22:51:16.974Z,14.04
2022-12-08T22:53:43.932Z,14.01
2022-12-08T22:56:12.694Z,14.08
2022-12-08T22:58:40.876Z,14.08
2022-12-08T23:01:08.963Z,13.82
2022-12-08T23:03:36.121Z,13.85
2022-12-08T23:06:03.110Z,13.92
2022-12-08T23:08:30.105Z,13.78
2022-12-08T23:10:57.952Z,13.86
2022-12-08T23:13:24.855Z,13.90
2022-12-08T23:15:51.500Z,13.92
2022-12-08T23:18:19.675Z,13.95
2022-12-08T23:20:47.285Z,13.90
2022-12-08T23:23:14.748Z,14.07
2022-12-08T23:25:42.188Z,14.06
2022-12-08T23:28:10.241Z,14.17
2022-12-08T23:30:40.298Z,14.10
2022-12-08T23:33:07.041Z,14.09
2022-12-08T23:35:34.046Z,14.21
2022-12-08T23:38:02.024Z,14.25
2022-12-08T23:40:28.840Z,14.28
2022-12-08T23:42:55.553Z,14.31
2022-12-08T23:45:22.355Z,14.35
2022-12-08T23:47:49.119Z,14.38
2022-12-08T23:50:15.841Z,14.42
2022-12-08T23:52:42.595Z,14.41
2022-12-08T23:55:09.584Z,14.39
2022-12-08T23:57:37.100Z,14.44
